Time;durP1;ratioP1;P1;durP2;ratioP2;P2;SDS_P1;SDS_P2;PMS_P1;PMS_P2;Temp;Humidity;BMP_temperature;BMP_pressure;BME280_temperature;BME280_humidity;BME280_pressure;Samples;Min_cycle;Max_cycle;Signal;HPM_P1;HPM_P2
2023/12/28 00:01:51;;;;;;;23.55;22.15;;;;;;;1.20;100.00;102317.47;4958745;28;20501;-56
2023/12/28 00:04:18;;;;;;;21.52;19.95;;;;;;;1.16;100.00;102318.63;4959971;28;20217;-56
2023/12/28 00:06:46;;;;;;;22.88;21.48;;;;;;;1.12;100.00;102323.19;4959454;28;20062;-56
2023/12/28 00:09:13;;;;;;;24.17;22.67;;;;;;;1.15;100.00;102323.03;4956388;28;20059;-56
2023/12/28 00:11:40;;;;;;;23.85;22.45;;;;;;;1.03;100.00;102323.81;4957871;28;20055;-57
2023/12/28 00:14:07;;;;;;;20.35;18.98;;;;;;;0.89;100.00;102325.63;4960944;28;20042;-56
2023/12/28 00:16:34;;;;;;;20.88;19.45;;;;;;;1.06;100.00;102334.94;4955605;28;20054;-56
2023/12/28 00:19:02;;;;;;;23.30;21.70;;;;;;;1.30;100.00;102327.19;4957751;28;20055;-57
2023/12/28 00:21:29;;;;;;;21.65;20.25;;;;;;;0.77;100.00;102336.06;4961507;28;20133;-56
2023/12/28 00:23:57;;;;;;;22.17;20.67;;;;;;;0.72;100.00;102332.91;4957047;28;20063;-56
2023/12/28 00:26:24;;;;;;;23.77;21.95;;;;;;;0.72;100.00;102335.53;4961730;28;20441;-56
2023/12/28 00:28:50;;;;;;;22.27;20.88;;;;;;;0.79;100.00;102326.34;4968589;28;20062;-56
2023/12/28 00:31:18;;;;;;;20.70;19.40;;;;;;;0.81;100.00;102333.13;4960127;28;20055;-56
2023/12/28 00:33:45;;;;;;;21.90;20.50;;;;;;;0.64;100.00;102333.44;4962282;28;20583;-57
2023/12/28 00:36:11;;;;;;;24.17;22.38;;;;;;;0.36;100.00;102327.38;4953623;28;20441;-56
2023/12/28 00:38:38;;;;;;;22.17;20.67;;;;;;;0.53;100.00;102326.28;4956933;28;20047;-56
2023/12/28 00:41:06;;;;;;;22.85;20.52;;;;;;;0.82;100.00;102323.53;4968695;28;20444;-57
2023/12/28 00:43:33;;;;;;;20.70;19.40;;;;;;;0.74;100.00;102326.66;4960483;28;20535;-57
2023/12/28 00:46:00;;;;;;;22.30;21.00;;;;;;;0.78;100.00;102330.72;4954674;28;20074;-56
2023/12/28 00:48:27;;;;;;;23.33;21.40;;;;;;;0.45;100.00;102328.56;4959217;28;20055;-57
2023/12/28 00:50:55;;;;;;;21.88;20.17;;;;;;;0.35;100.00;102335.34;4962393;28;20054;-56
2023/12/28 00:53:22;;;;;;;23.70;22.10;;;;;;;0.49;100.00;102345.75;4958317;28;20114;-56
2023/12/28 00:55:52;;;;;;;23.80;22.05;;;;;;;0.33;100.00;102350.28;4964098;28;20058;-56
2023/12/28 00:58:20;;;;;;;22.40;20.80;;;;;;;0.40;100.00;102349.78;4959799;28;20504;-57
2023/12/28 01:00:47;;;;;;;23.90;22.30;;;;;;;0.31;100.00;102352.16;4958644;28;20078;-56
2023/12/28 01:03:14;;;;;;;21.30;19.80;;;;;;;0.30;100.00;102345.25;4959624;28;20050;-56
2023/12/28 01:05:41;;;;;;;23.30;21.30;;;;;;;0.41;100.00;102348.00;4959664;28;20055;-57
2023/12/28 01:08:08;;;;;;;28.95;23.77;;;;;;;0.23;100.00;102355.25;4960250;28;20523;-57
2023/12/28 01:10:35;;;;;;;23.60;22.00;;;;;;;0.21;100.00;102350.16;4956255;28;20059;-57
2023/12/28 01:13:02;;;;;;;23.45;21.85;;;;;;;0.08;100.00;102351.84;4962068;28;20055;-57
2023/12/28 01:15:30;;;;;;;22.45;20.95;;;;;;;0.07;100.00;102349.34;4957360;28;20062;-57
2023/12/28 01:17:57;;;;;;;25.33;23.63;;;;;;;0.06;100.00;102355.50;4960076;28;20492;-56
2023/12/28 01:20:24;;;;;;;21.95;20.45;;;;;;;0.11;100.00;102340.38;4956013;28;20058;-56
2023/12/28 01:22:51;;;;;;;22.10;20.70;;;;;;;0.08;100.00;102349.22;4958728;28;20520;-56
2023/12/28 01:25:17;;;;;;;21.13;19.73;;;;;;;-0.21;100.00;102337.16;4963521;28;20065;-56
2023/12/28 01:27:44;;;;;;;23.75;22.15;;;;;;;-0.18;100.00;102337.84;4960814;28;20085;-56
2023/12/28 01:30:11;;;;;;;25.20;23.65;;;;;;;-0.02;100.00;102342.94;4959106;28;20052;-56
2023/12/28 01:32:40;;;;;;;24.52;23.02;;;;;;;-0.06;100.00;102342.28;4956571;28;20130;-56
2023/12/28 01:35:07;;;;;;;22.90;21.55;;;;;;;-0.11;100.00;102343.50;4957316;28;20047;-56
2023/12/28 01:37:34;;;;;;;21.55;20.15;;;;;;;-0.65;100.00;102340.75;4956546;28;20055;-57
2023/12/28 01:40:02;;;;;;;22.15;20.65;;;;;;;-0.35;100.00;102335.44;4961607;28;20496;-56
2023/12/28 01:42:31;;;;;;;24.20;22.60;;;;;;;-0.28;100.00;102344.56;4950985;28;20090;-56
2023/12/28 01:44:58;;;;;;;25.50;23.67;;;;;;;-0.52;100.00;102345.13;4958358;28;20431;-56
2023/12/28 01:47:26;;;;;;;25.52;23.75;;;;;;;-0.53;100.00;102334.78;4958785;28;20137;-56
2023/12/28 01:49:54;;;;;;;26.95;25.17;;;;;;;-0.42;100.00;102340.22;4957784;28;20055;-56
2023/12/28 01:52:21;;;;;;;24.92;23.33;;;;;;;-0.47;100.00;102332.63;4963027;28;20501;-56
2023/12/28 01:54:50;;;;;;;24.30;22.20;;;;;;;-0.55;100.00;102332.25;4961514;28;20440;-56
2023/12/28 01:57:20;;;;;;;24.23;22.63;;;;;;;-0.59;100.00;102332.56;4962163;28;20501;-56
2023/12/28 01:59:47;;;;;;;25.20;23.60;;;;;;;-0.51;100.00;102328.56;4953402;28;20059;-56
2023/12/28 02:02:14;;;;;;;24.23;22.50;;;;;;;-0.41;100.00;102338.44;4956953;28;20051;-57
2023/12/28 02:04:41;;;;;;;20.60;19.30;;;;;;;-0.70;100.00;102327.97;4960742;28;20062;-56
2023/12/28 02:07:10;;;;;;;22.05;20.65;;;;;;;-0.71;100.00;102339.38;4956591;28;20424;-56
2023/12/28 02:09:37;;;;;;;20.70;19.30;;;;;;;-0.38;100.00;102335.63;4958702;28;20537;-56
2023/12/28 02:12:04;;;;;;;21.80;20.30;;;;;;;-0.13;100.00;102337.53;4956024;28;20059;-56
2023/12/28 02:14:31;;;;;;;24.23;22.52;;;;;;;0.14;100.00;102338.38;4957325;28;20055;-57
2023/12/28 02:17:05;;;;;;;25.77;24.15;;;;;;;-0.37;100.00;102327.69;4956556;28;20046;-57
2023/12/28 02:19:44;;;;;;;23.27;21.77;;;;;;;-0.68;100.00;102331.34;4955867;28;20055;-57
2023/12/28 02:22:15;;;;;;;23.83;22.15;;;;;;;-0.90;100.00;102321.38;4955958;28;20519;-58
2023/12/28 02:25:12;;;;;;;24.08;22.58;;;;;;;-0.73;100.00;102329.03;4961128;28;20164;-56
2023/12/28 02:27:41;;;;;;;25.17;23.38;;;;;;;-0.65;100.00;102332.94;4939664;28;20606;-56
2023/12/28 02:30:10;;;;;;;23.75;22.13;;;;;;;-0.79;100.00;102326.75;4964668;28;20098;-56
2023/12/28 02:32:54;;;;;;;24.23;22.52;;;;;;;-0.87;100.00;102323.81;4957542;28;20047;-56
2023/12/28 02:35:25;;;;;;;25.88;23.80;;;;;;;-0.95;100.00;102323.41;4962062;28;20051;-56
2023/12/28 02:37:57;;;;;;;23.48;21.77;;;;;;;-0.75;100.00;102330.88;4960975;28;20091;-62
2023/12/28 02:40:27;;;;;;;21.00;19.35;;;;;;;-0.72;100.00;102327.25;4961790;28;20051;-56
2023/12/28 02:42:54;;;;;;;22.90;21.60;;;;;;;-0.78;100.00;102320.63;4954715;28;20062;-58
2023/12/28 02:45:21;;;;;;;22.90;21.50;;;;;;;-0.71;100.00;102311.50;4966764;28;20058;-58
2023/12/28 02:47:48;;;;;;;25.55;23.85;;;;;;;-0.62;100.00;102312.69;4953215;28;20050;-59
2023/12/28 02:50:15;;;;;;;24.00;22.40;;;;;;;-0.87;100.00;102308.16;4964587;28;20066;-58
2023/12/28 02:52:42;;;;;;;25.63;23.92;;;;;;;-1.01;100.00;102301.13;4956189;28;20063;-58
2023/12/28 02:55:09;;;;;;;24.70;22.85;;;;;;;-0.96;100.00;102304.31;4964977;28;20439;-58
2023/12/28 02:57:38;;;;;;;23.85;22.35;;;;;;;-0.85;100.00;102305.44;4961728;28;20067;-55
2023/12/28 03:00:08;;;;;;;22.80;21.48;;;;;;;-0.88;100.00;102318.66;4961852;28;20543;-56
2023/12/28 03:02:36;;;;;;;23.67;22.38;;;;;;;-0.88;100.00;102316.88;4962294;28;20582;-58
2023/12/28 03:05:03;;;;;;;24.98;23.30;;;;;;;-0.79;100.00;102318.94;4959165;28;20059;-58
2023/12/28 03:07:29;;;;;;;24.00;22.60;;;;;;;-1.05;100.00;102330.13;4960273;28;20063;-58
2023/12/28 03:09:56;;;;;;;23.52;22.13;;;;;;;-0.82;100.00;102332.16;4962935;28;20055;-57
2023/12/28 03:12:23;;;;;;;24.13;22.30;;;;;;;-1.08;100.00;102325.91;4962100;28;20051;-58
2023/12/28 03:14:51;;;;;;;23.45;21.85;;;;;;;-0.99;100.00;102322.75;4955549;28;20142;-58
2023/12/28 03:17:20;;;;;;;26.65;25.05;;;;;;;-1.01;100.00;102322.00;4960242;28;20066;-58
2023/12/28 03:19:48;;;;;;;25.13;23.63;;;;;;;-0.95;100.00;102312.97;4959209;28;20051;-58
2023/12/28 03:22:15;;;;;;;25.38;23.58;;;;;;;-0.92;100.00;102316.22;4958809;28;20054;-59
2023/12/28 03:24:42;;;;;;;26.08;24.05;;;;;;;-1.03;100.00;102313.44;4961759;28;20603;-58
2023/12/28 03:27:09;;;;;;;21.98;20.48;;;;;;;-1.10;100.00;102313.88;4963392;28;20065;-58
2023/12/28 03:29:35;;;;;;;25.27;23.30;;;;;;;-1.03;100.00;102304.75;4970043;28;20433;-56
2023/12/28 03:32:04;;;;;;;24.45;23.05;;;;;;;-1.11;100.00;102310.44;4958707;28;20057;-56
2023/12/28 03:34:31;;;;;;;25.55;23.75;;;;;;;-1.48;100.00;102312.59;4958577;28;20224;-62
2023/12/28 03:36:58;;;;;;;26.80;24.83;;;;;;;-1.25;100.00;102324.28;4964502;28;20451;-56
2023/12/28 03:39:25;;;;;;;30.98;28.88;;;;;;;-1.28;100.00;102326.25;4961651;28;20065;-62
2023/12/28 03:41:52;;;;;;;24.67;23.08;;;;;;;-1.41;100.00;102326.13;4969846;28;20074;-56
2023/12/28 03:44:20;;;;;;;22.45;21.10;;;;;;;-1.47;100.00;102324.69;4961200;28;20085;-56
2023/12/28 03:46:48;;;;;;;24.35;22.75;;;;;;;-1.26;100.00;102329.59;4956257;28;20093;-56
2023/12/28 03:49:18;;;;;;;26.00;24.05;;;;;;;-1.26;100.00;102343.47;4963844;28;20050;-57
2023/12/28 03:51:45;;;;;;;24.48;22.67;;;;;;;-1.17;100.00;102344.72;4958820;28;20050;-56
2023/12/28 03:54:13;;;;;;;24.17;22.67;;;;;;;-1.29;100.00;102341.06;4961367;28;20138;-56
2023/12/28 03:56:40;;;;;;;24.95;23.25;;;;;;;-1.35;100.00;102336.19;4963330;28;20441;-56
2023/12/28 03:59:07;;;;;;;25.88;24.17;;;;;;;-1.30;100.00;102334.16;4961993;28;20109;-56
2023/12/28 04:01:34;;;;;;;25.27;23.58;;;;;;;-1.58;100.00;102328.84;4957017;28;20505;-56
2023/12/28 04:04:01;;;;;;;26.65;25.05;;;;;;;-1.62;100.00;102331.63;4964046;28;20057;-58
2023/12/28 04:06:29;;;;;;;24.52;22.75;;;;;;;-1.61;100.00;102332.47;4963374;28;20055;-59
2023/12/28 04:08:57;;;;;;;25.33;23.73;;;;;;;-1.45;100.00;102338.50;4959792;28;20051;-58
2023/12/28 04:11:23;;;;;;;25.20;23.50;;;;;;;-1.44;100.00;102331.50;4959930;28;20055;-56
2023/12/28 04:13:51;;;;;;;23.70;22.30;;;;;;;-1.27;100.00;102340.94;4957352;28;20066;-63
2023/12/28 04:16:18;;;;;;;20.55;19.35;;;;;;;-1.49;100.00;102326.53;4955286;28;20055;-55
2023/12/28 04:18:45;;;;;;;28.00;25.35;;;;;;;-1.62;100.00;102330.78;4961045;28;20066;-56
2023/12/28 04:21:13;;;;;;;23.20;21.70;;;;;;;-1.41;100.00;102339.16;4958891;28;20254;-58
2023/12/28 04:23:42;;;;;;;20.95;19.23;;;;;;;-1.20;100.00;102337.06;4958659;28;20460;-61
2023/12/28 04:26:09;;;;;;;20.13;18.80;;;;;;;-1.34;100.00;102339.63;4962624;28;20066;-62
2023/12/28 04:28:36;;;;;;;21.83;20.00;;;;;;;-1.46;100.00;102344.63;4968909;28;20054;-62
2023/12/28 04:31:04;;;;;;;21.40;20.10;;;;;;;-1.51;100.00;102346.66;4962486;28;20480;-62
2023/12/28 04:33:32;;;;;;;22.98;21.55;;;;;;;-1.19;100.00;102344.78;4963235;28;20113;-62
2023/12/28 04:35:58;;;;;;;22.67;21.15;;;;;;;-1.28;100.00;102342.72;4956756;28;20055;-62
2023/12/28 04:38:25;;;;;;;21.75;20.45;;;;;;;-1.45;100.00;102346.31;4961309;28;20456;-62
2023/12/28 04:40:53;;;;;;;23.88;22.17;;;;;;;-1.33;100.00;102349.13;4958819;28;20058;-64
2023/12/28 04:43:20;;;;;;;20.42;19.13;;;;;;;-1.36;100.00;102344.09;4953866;28;20102;-61
2023/12/28 04:45:49;;;;;;;21.00;19.80;;;;;;;-1.66;100.00;102339.72;4959728;28;20061;-62
2023/12/28 04:48:20;;;;;;;21.77;20.48;;;;;;;-1.67;100.00;102336.25;4953852;28;20047;-64
2023/12/28 04:50:47;;;;;;;23.23;21.83;;;;;;;-1.80;100.00;102334.44;4956712;28;20090;-58
2023/12/28 04:53:14;;;;;;;21.88;20.58;;;;;;;-2.15;100.00;102325.06;4963922;28;20313;-58
2023/12/28 04:55:41;;;;;;;23.45;21.63;;;;;;;-2.00;100.00;102335.53;4963954;28;20505;-56
2023/12/28 04:58:11;;;;;;;21.55;19.95;;;;;;;-1.80;100.00;102330.06;4958916;28;20056;-56
2023/12/28 05:00:37;;;;;;;20.05;18.85;;;;;;;-1.81;100.00;102323.19;4957918;28;20051;-56
2023/12/28 05:03:05;;;;;;;27.13;20.08;;;;;;;-1.92;100.00;102328.16;4957130;28;20436;-56
2023/12/28 05:05:32;;;;;;;21.70;19.88;;;;;;;-2.03;100.00;102326.13;4953938;28;20070;-56
2023/12/28 05:07:59;;;;;;;22.08;20.73;;;;;;;-1.95;100.00;102328.31;4960863;28;20062;-56
2023/12/28 05:10:27;;;;;;;22.75;20.92;;;;;;;-1.78;100.00;102328.22;4961913;28;20055;-56
2023/12/28 05:12:54;;;;;;;19.73;18.42;;;;;;;-1.92;100.00;102334.19;4952120;28;20134;-56
2023/12/28 05:15:22;;;;;;;19.98;18.75;;;;;;;-1.88;100.00;102330.47;4961600;28;20055;-56
2023/12/28 05:17:50;;;;;;;22.58;20.92;;;;;;;-1.89;100.00;102333.19;4955838;28;20066;-57
2023/12/28 05:20:17;;;;;;;22.08;20.75;;;;;;;-2.27;100.00;102330.91;4959946;28;20055;-56
2023/12/28 05:22:44;;;;;;;21.45;20.17;;;;;;;-2.13;100.00;102333.59;4958166;28;20533;-56
2023/12/28 05:25:12;;;;;;;20.77;19.48;;;;;;;-2.34;100.00;102330.41;4961848;28;20065;-55
2023/12/28 05:27:39;;;;;;;22.63;20.52;;;;;;;-2.39;100.00;102316.81;4960532;28;20169;-56
2023/12/28 05:30:07;;;;;;;21.00;19.70;;;;;;;-1.93;100.00;102321.28;4965952;28;20506;-57
2023/12/28 05:32:36;;;;;;;21.17;19.77;;;;;;;-1.68;100.00;102316.34;4960068;28;20375;-57
2023/12/28 05:35:03;;;;;;;19.85;18.75;;;;;;;-2.02;100.00;102320.00;4958292;28;20051;-56
2023/12/28 05:37:30;;;;;;;20.02;18.75;;;;;;;-1.95;100.00;102323.94;4958983;28;20063;-56
2023/12/28 05:39:57;;;;;;;19.83;18.65;;;;;;;-1.78;100.00;102322.19;4963613;28;20416;-57
2023/12/28 05:42:24;;;;;;;18.77;17.65;;;;;;;-1.79;100.00;102323.09;4964495;28;20050;-56
2023/12/28 05:44:51;;;;;;;18.92;17.83;;;;;;;-2.13;100.00;102317.16;4962665;28;20050;-56
2023/12/28 05:47:18;;;;;;;19.75;18.55;;;;;;;-1.87;100.00;102323.53;4948751;28;20441;-56
2023/12/28 05:49:46;;;;;;;20.45;18.35;;;;;;;-1.54;100.00;102328.59;4963245;28;20073;-56
2023/12/28 05:52:14;;;;;;;17.67;16.58;;;;;;;-1.30;100.00;102341.13;4956288;28;20444;-56
2023/12/28 05:54:42;;;;;;;18.00;16.90;;;;;;;-1.58;100.00;102327.06;4958596;28;20101;-56
2023/12/28 05:57:09;;;;;;;18.17;17.02;;;;;;;-1.84;100.00;102331.19;4961573;28;20222;-56
2023/12/28 05:59:38;;;;;;;17.05;16.05;;;;;;;-1.71;100.00;102320.91;4953098;28;20047;-57
2023/12/28 06:02:05;;;;;;;17.70;16.60;;;;;;;-1.72;100.00;102330.47;4957442;28;20433;-56
2023/12/28 06:04:33;;;;;;;18.45;17.35;;;;;;;-1.73;100.00;102323.56;4956971;28;20114;-56
2023/12/28 06:07:02;;;;;;;18.60;17.20;;;;;;;-1.73;100.00;102320.13;4956622;28;20062;-62
2023/12/28 06:09:29;;;;;;;17.70;16.60;;;;;;;-1.73;100.00;102318.38;4965970;28;20054;-62
2023/12/28 06:11:55;;;;;;;20.40;18.55;;;;;;;-1.54;100.00;102326.00;4962101;28;20050;-56
2023/12/28 06:14:22;;;;;;;19.83;18.48;;;;;;;-1.57;100.00;102323.56;4962498;28;20070;-56
2023/12/28 06:16:49;;;;;;;20.92;19.50;;;;;;;-1.35;100.00;102323.16;4960037;28;20055;-57
2023/12/28 06:19:16;;;;;;;21.65;20.08;;;;;;;-0.94;100.00;102323.34;4964764;28;20519;-56
2023/12/28 06:21:43;;;;;;;22.40;20.65;;;;;;;-0.64;100.00;102324.16;4958707;28;20160;-56
2023/12/28 06:24:11;;;;;;;25.80;23.20;;;;;;;-0.25;100.00;102319.09;4961051;28;20114;-56
2023/12/28 06:26:40;;;;;;;24.45;22.25;;;;;;;-0.50;100.00;102311.94;4964897;28;20054;-56
2023/12/28 06:29:07;;;;;;;35.20;31.38;;;;;;;0.22;100.00;102324.84;4971269;28;20436;-56
2023/12/28 06:31:36;;;;;;;26.48;24.67;;;;;;;0.65;100.00;102324.66;4965038;28;20050;-56
2023/12/28 06:34:03;;;;;;;25.63;23.70;;;;;;;0.69;100.00;102334.78;4956408;28;20106;-57
2023/12/28 06:36:30;;;;;;;32.20;29.77;;;;;;;1.36;100.00;102328.53;4962570;28;20527;-56
2023/12/28 06:38:57;;;;;;;37.00;30.13;;;;;;;1.75;100.00;102317.03;4960723;28;20126;-56
2023/12/28 06:41:25;;;;;;;31.45;27.45;;;;;;;1.94;100.00;102321.81;4970987;28;20492;-56
2023/12/28 06:43:52;;;;;;;24.70;22.95;;;;;;;2.21;100.00;102323.38;4964508;28;20876;-56
2023/12/28 06:46:19;;;;;;;27.55;25.45;;;;;;;3.09;100.00;102323.78;4959615;28;20054;-56
2023/12/28 06:48:46;;;;;;;36.45;29.30;;;;;;;3.37;100.00;102311.13;4956888;28;20102;-57
2023/12/28 06:51:17;;;;;;;26.73;24.73;;;;;;;2.89;100.00;102313.94;4960188;28;20046;-56
2023/12/28 06:53:44;;;;;;;25.88;23.98;;;;;;;3.25;100.00;102318.16;4959581;28;20094;-57
2023/12/28 06:56:11;;;;;;;26.70;24.77;;;;;;;3.33;100.00;102310.53;4965244;28;20548;-57
2023/12/28 06:58:39;;;;;;;28.95;26.85;;;;;;;4.59;100.00;102317.00;4959646;28;20144;-57
2023/12/28 07:01:06;;;;;;;31.48;28.88;;;;;;;4.45;100.00;102319.97;4956224;28;20058;-56
2023/12/28 07:03:33;;;;;;;32.83;30.42;;;;;;;4.78;100.00;102310.19;4960976;28;20039;-57
2023/12/28 07:06:00;;;;;;;29.38;26.90;;;;;;;4.98;100.00;102313.78;4964372;28;20062;-56
2023/12/28 07:08:27;;;;;;;31.52;27.70;;;;;;;4.42;100.00;102314.94;4960583;28;20061;-57
2023/12/28 07:10:54;;;;;;;31.92;28.63;;;;;;;4.35;100.00;102322.47;4960093;28;20510;-57
2023/12/28 07:13:21;;;;;;;33.10;27.35;;;;;;;5.54;100.00;102313.34;4960258;28;20051;-57
2023/12/28 07:15:49;;;;;;;32.65;29.13;;;;;;;5.17;100.00;102310.41;4957637;28;20050;-57
2023/12/28 07:18:16;;;;;;;31.33;25.77;;;;;;;5.66;100.00;102300.91;4960781;28;20440;-57
2023/12/28 07:20:43;;;;;;;30.27;26.98;;;;;;;5.82;100.00;102303.84;4959119;28;20118;-57
2023/12/28 07:23:10;;;;;;;30.52;27.83;;;;;;;6.56;100.00;102305.16;4959295;28;20089;-57
2023/12/28 07:25:37;;;;;;;25.55;22.83;;;;;;;6.55;100.00;102304.31;4967206;28;20520;-60
2023/12/28 07:28:04;;;;;;;29.17;26.00;;;;;;;5.98;100.00;102308.59;4966515;28;20053;-62
2023/12/28 07:30:31;;;;;;;26.90;24.92;;;;;;;6.56;100.00;102305.16;4955742;28;20051;-56
2023/12/28 07:32:59;;;;;;;28.15;26.20;;;;;;;7.66;100.00;102305.34;4961277;28;20069;-57
2023/12/28 07:35:26;;;;;;;28.52;26.42;;;;;;;6.81;100.00;102307.19;4959382;28;20051;-57
2023/12/28 07:37:54;;;;;;;25.95;24.25;;;;;;;7.62;100.00;102298.66;4959592;28;20059;-57
2023/12/28 07:40:21;;;;;;;25.27;23.38;;;;;;;7.61;100.00;102306.75;4964140;28;20512;-57
2023/12/28 07:42:48;;;;;;;24.58;22.77;;;;;;;7.49;100.00;102301.66;4966336;28;20437;-57
2023/12/28 07:45:15;;;;;;;27.33;25.23;;;;;;;8.29;100.00;102306.28;4957954;28;20058;-57
2023/12/28 07:47:42;;;;;;;26.30;24.40;;;;;;;8.63;100.00;102306.44;4951966;28;20065;-57
2023/12/28 07:50:11;;;;;;;25.83;24.13;;;;;;;8.08;100.00;102309.22;4959214;28;20061;-62
2023/12/28 07:52:38;;;;;;;25.65;23.95;;;;;;;8.79;100.00;102326.94;4959430;28;20115;-61
2023/12/28 07:55:05;;;;;;;26.50;24.70;;;;;;;9.51;100.00;102314.25;4961553;28;20070;-57
2023/12/28 07:57:34;;;;;;;25.75;24.00;;;;;;;10.21;100.00;102324.53;4958269;28;20055;-57
2023/12/28 08:00:01;;;;;;;26.27;23.73;;;;;;;10.15;100.00;102315.38;4957578;28;20528;-57
2023/12/28 08:02:28;;;;;;;26.48;24.67;;;;;;;10.78;100.00;102322.72;4963470;28;20066;-56
2023/12/28 08:04:55;;;;;;;23.77;22.27;;;;;;;10.09;100.00;102322.19;4959420;28;20086;-62
2023/12/28 08:07:23;;;;;;;24.65;22.80;;;;;;;10.67;100.00;102322.25;4958696;28;20047;-62
2023/12/28 08:09:50;;;;;;;27.17;24.30;;;;;;;10.64;100.00;102323.41;4957907;28;20239;-57
2023/12/28 08:12:18;;;;;;;25.60;23.80;;;;;;;10.02;100.00;102313.22;4962033;28;20066;-57
2023/12/28 08:14:44;;;;;;;25.38;23.58;;;;;;;10.52;100.00;102319.41;4959044;28;20105;-57
2023/12/28 08:17:12;;;;;;;23.85;22.08;;;;;;;11.30;100.00;102318.78;4962628;28;20047;-58
2023/12/28 08:19:39;;;;;;;24.95;22.90;;;;;;;10.96;100.00;102317.22;4960258;28;20109;-57
2023/12/28 08:22:06;;;;;;;25.23;23.33;;;;;;;11.53;100.00;102313.56;4956564;28;20051;-57
2023/12/28 08:24:36;;;;;;;24.02;22.30;;;;;;;10.90;100.00;102309.94;4962517;28;20146;-57
2023/12/28 08:27:03;;;;;;;22.73;21.00;;;;;;;11.15;100.00;102310.69;4962714;28;20509;-57
2023/12/28 08:29:29;;;;;;;23.45;21.58;;;;;;;11.17;100.00;102308.69;4964188;28;20062;-57
2023/12/28 08:31:56;;;;;;;25.40;23.25;;;;;;;11.82;100.00;102301.41;4957764;28;20453;-57
2023/12/28 08:34:23;;;;;;;23.95;22.05;;;;;;;11.99;100.00;102295.03;4960485;28;20055;-62
2023/12/28 08:36:52;;;;;;;23.00;21.20;;;;;;;11.73;100.00;102297.13;4952104;28;20059;-57
2023/12/28 08:39:19;;;;;;;27.45;24.95;;;;;;;12.28;100.00;102307.59;4960250;28;20051;-57
2023/12/28 08:41:47;;;;;;;22.98;21.17;;;;;;;12.26;100.00;102314.16;4968466;28;20438;-56
2023/12/28 08:44:14;;;;;;;24.00;21.90;;;;;;;12.88;100.00;102310.44;4957461;28;20078;-62
2023/12/28 08:46:41;;;;;;;23.00;21.30;;;;;;;12.01;100.00;102309.00;4965141;28;20051;-57
2023/12/28 08:49:10;;;;;;;27.52;25.33;;;;;;;13.44;100.00;102302.81;4953752;28;20047;-58
2023/12/28 08:51:37;;;;;;;22.73;21.13;;;;;;;13.55;100.00;102304.16;4959218;28;20070;-57
2023/12/28 08:54:04;;;;;;;23.10;21.40;;;;;;;13.83;100.00;102296.28;4957569;28;20464;-57
2023/12/28 08:56:31;;;;;;;23.27;21.55;;;;;;;14.06;100.00;102299.59;4962342;28;20066;-58
2023/12/28 08:58:59;;;;;;;22.08;20.38;;;;;;;13.90;100.00;102287.31;4959892;28;20146;-56
2023/12/28 09:01:26;;;;;;;23.05;21.33;;;;;;;14.12;100.00;102284.66;4953407;28;20055;-57
2023/12/28 09:03:54;;;;;;;24.90;23.10;;;;;;;14.48;100.00;102281.88;4959229;28;20523;-57
2023/12/28 09:06:22;;;;;;;30.90;28.52;;;;;;;14.49;100.00;102274.69;4959347;28;20086;-57
2023/12/28 09:08:52;;;;;;;23.48;21.67;;;;;;;14.29;100.00;102262.00;4963981;28;20043;-62
2023/12/28 09:11:19;;;;;;;22.30;20.70;;;;;;;13.35;100.00;102266.59;4957268;28;20062;-57
2023/12/28 09:13:46;;;;;;;23.17;21.40;;;;;;;14.57;100.00;102261.22;4959272;28;20058;-57
2023/12/28 09:16:16;;;;;;;23.58;21.67;;;;;;;15.93;100.00;102262.25;4960282;28;20472;-57
2023/12/28 09:18:43;;;;;;;23.98;21.98;;;;;;;15.91;100.00;102261.63;4955156;28;20062;-57
2023/12/28 09:21:10;;;;;;;23.42;21.63;;;;;;;10.83;100.00;102255.75;4958318;28;20363;-62
2023/12/28 09:23:37;;;;;;;24.10;22.20;;;;;;;12.02;100.00;102246.72;4958772;28;20054;-56
2023/12/28 09:26:06;;;;;;;24.23;22.23;;;;;;;15.37;100.00;102233.03;4960252;28;20043;-57
2023/12/28 09:28:33;;;;;;;23.15;21.35;;;;;;;15.73;100.00;102226.56;4959266;28;20146;-57
2023/12/28 09:31:01;;;;;;;24.92;23.02;;;;;;;15.38;100.00;102233.88;4961247;28;20418;-57
2023/12/28 09:33:29;;;;;;;24.23;22.23;;;;;;;14.95;100.00;102231.41;4957190;28;20062;-56
2023/12/28 09:35:56;;;;;;;23.00;21.20;;;;;;;15.54;100.00;102225.47;4957500;28;20079;-57
2023/12/28 09:38:23;;;;;;;23.55;21.50;;;;;;;14.60;100.00;102223.41;4955410;28;20536;-57
2023/12/28 09:40:54;;;;;;;24.30;22.30;;;;;;;16.52;100.00;102214.19;4965768;28;20086;-57
2023/12/28 09:43:24;;;;;;;23.70;21.70;;;;;;;17.31;100.00;102207.78;4962803;28;20059;-56
2023/12/28 09:45:51;;;;;;;23.40;21.40;;;;;;;16.38;100.00;102208.84;4959885;28;20079;-57
2023/12/28 09:48:19;;;;;;;25.00;23.00;;;;;;;17.15;100.00;102198.31;4961129;28;20062;-57
2023/12/28 09:50:54;;;;;;;24.58;22.55;;;;;;;14.58;100.00;102194.19;4960527;28;20070;-56
2023/12/28 09:53:22;;;;;;;28.95;26.75;;;;;;;16.67;100.00;102187.94;4961367;28;20086;-58
2023/12/28 09:55:51;;;;;;;24.50;22.40;;;;;;;17.76;100.00;102184.34;4965134;28;20055;-57
2023/12/28 09:58:19;;;;;;;24.67;22.67;;;;;;;15.73;100.00;102178.34;4959192;28;20642;-56
2023/12/28 10:00:47;;;;;;;27.85;25.65;;;;;;;17.79;100.00;102178.56;4962605;28;20051;-57
2023/12/28 10:03:15;;;;;;;24.60;22.50;;;;;;;15.80;100.00;102176.50;4962454;28;20413;-57
2023/12/28 10:05:42;;;;;;;26.17;24.05;;;;;;;15.93;100.00;102178.38;4965252;28;20358;-56
2023/12/28 10:08:12;;;;;;;24.48;22.55;;;;;;;15.61;100.00;102179.94;4960940;28;20063;-57
2023/12/28 10:10:39;;;;;;;25.20;23.20;;;;;;;16.46;100.00;102171.09;4964039;28;20460;-57
2023/12/28 10:13:07;;;;;;;24.60;22.60;;;;;;;15.04;100.00;102164.16;4956827;28;20058;-58
2023/12/28 10:15:34;;;;;;;26.00;23.90;;;;;;;14.00;100.00;102161.47;4961275;28;20070;-61
2023/12/28 10:18:02;;;;;;;29.65;26.88;;;;;;;15.51;100.00;102158.91;4961554;28;20051;-57
2023/12/28 10:20:30;;;;;;;30.15;27.75;;;;;;;15.55;100.00;102158.31;4962891;28;20059;-61
2023/12/28 10:22:58;;;;;;;30.45;28.15;;;;;;;15.21;100.00;102142.38;4961143;28;20054;-56
2023/12/28 10:25:27;;;;;;;26.42;24.23;;;;;;;15.75;100.00;102144.16;4964242;28;20059;-62
2023/12/28 10:27:55;;;;;;;26.30;24.10;;;;;;;13.82;100.00;102127.22;4963556;28;20425;-62
2023/12/28 10:30:22;;;;;;;26.38;24.10;;;;;;;13.98;100.00;102126.13;4967657;28;20059;-62
2023/12/28 10:32:49;;;;;;;25.10;22.92;;;;;;;12.01;100.00;102121.75;4958905;28;20050;-62
2023/12/28 10:35:16;;;;;;;24.02;21.92;;;;;;;15.14;100.00;102106.75;4960973;28;20047;-62
2023/12/28 10:37:44;;;;;;;22.55;20.63;;;;;;;16.93;100.00;102104.69;4961222;28;20085;-57
2023/12/28 10:40:14;;;;;;;25.50;23.30;;;;;;;15.08;100.00;102100.38;4965699;28;20607;-57
2023/12/28 10:42:51;;;;;;;26.05;23.75;;;;;;;14.28;100.00;102107.19;4967572;28;20059;-57
2023/12/28 10:45:20;;;;;;;25.80;23.48;;;;;;;17.02;100.00;102097.22;4960546;28;20575;-57
2023/12/28 10:47:56;;;;;;;22.23;20.23;;;;;;;16.28;100.00;102090.50;4953914;28;20047;-57
2023/12/28 10:50:27;;;;;;;22.45;20.55;;;;;;;15.29;100.00;102084.13;4962347;28;20430;-57
2023/12/28 10:53:02;;;;;;;21.70;19.80;;;;;;;15.04;100.00;102077.72;4960069;28;20058;-57
2023/12/28 10:55:41;;;;;;;25.13;23.02;;;;;;;15.99;100.00;102065.81;4965102;28;20050;-57
2023/12/28 10:58:12;;;;;;;22.60;20.70;;;;;;;16.41;100.00;102050.22;4961130;28;20520;-58
2023/12/28 11:00:46;;;;;;;22.25;20.35;;;;;;;17.89;100.00;102048.25;4960183;28;20063;-57
2023/12/28 11:03:16;;;;;;;25.52;23.42;;;;;;;14.18;100.00;102054.91;4959522;28;20050;-57
2023/12/28 11:05:46;;;;;;;24.70;22.70;;;;;;;15.94;100.00;102056.75;4960335;28;20500;-57
2023/12/28 11:08:14;;;;;;;25.58;23.48;;;;;;;16.44;100.00;102040.94;4958781;28;20057;-57